createdAt,value
2018-08-12T00:04:01.101Z,6.3
2018-08-12T00:09:01.133Z,6.4
2018-08-12T00:19:01.174Z,6.3
2018-08-12T00:24:01.073Z,6.4
2018-08-12T00:29:01.173Z,6.7
2018-08-12T00:34:01.077Z,7.2
2018-08-12T00:39:01.109Z,7.5
2018-08-12T00:44:01.068Z,7.8
2018-08-12T00:49:01.092Z,8.0
2018-08-12T00:54:01.066Z,7.9
2018-08-12T00:59:01.161Z,7.5
2018-08-12T01:04:01.072Z,7.9
2018-08-12T01:09:01.118Z,7.3
2018-08-12T01:14:01.067Z,7.1
2018-08-12T01:19:01.237Z,6.9
2018-08-12T01:24:01.080Z,6.5
2018-08-12T01:29:01.171Z,5.9
2018-08-12T01:39:01.277Z,6.1
2018-08-12T01:44:01.136Z,6.5
2018-08-12T01:49:01.247Z,7.0
2018-08-12T01:54:01.104Z,7.4
2018-08-12T01:59:01.223Z,8.1
2018-08-12T02:04:01.107Z,8.4
2018-08-12T02:09:01.204Z,8.1
2018-08-12T02:14:01.155Z,7.7
2018-08-12T02:19:01.146Z,7.3
2018-08-12T02:24:01.105Z,6.6
2018-08-12T02:29:01.235Z,6.3
2018-08-12T02:34:01.106Z,6.2
2018-08-12T02:44:01.236Z,6.3
2018-08-12T02:49:01.108Z,6.4
2018-08-12T02:54:01.077Z,6.2
2018-08-12T03:04:01.215Z,6.4
2018-08-12T03:20:01.161Z,6.7
2018-08-12T03:25:01.095Z,7.2
2018-08-12T03:30:01.418Z,6.9
2018-08-12T03:35:01.075Z,7.3
2018-08-12T03:40:01.171Z,7.4
2018-08-12T03:45:01.111Z,7.1
2018-08-12T03:50:01.253Z,7.0
2018-08-12T03:55:01.112Z,7.2
2018-08-12T04:00:01.186Z,7.2
2018-08-12T04:05:01.079Z,7.1
2018-08-12T04:10:01.160Z,7.3
2018-08-12T04:15:01.071Z,7.2
2018-08-12T04:20:01.229Z,7.4
2018-08-12T04:30:01.167Z,7.3
2018-08-12T04:35:01.096Z,7.4
2018-08-12T04:40:01.174Z,7.6
2018-08-12T04:45:01.075Z,7.2
2018-08-12T04:50:01.173Z,6.6
2018-08-12T04:55:01.067Z,6.9
2018-08-12T05:00:01.231Z,7.3
2018-08-12T05:05:01.067Z,7.0
2018-08-12T05:10:01.166Z,7.2
2018-08-12T05:15:01.105Z,7.6
2018-08-12T05:20:01.175Z,7.1
2018-08-12T05:25:01.108Z,6.6
2018-08-12T05:30:01.240Z,6.5
2018-08-12T05:35:01.105Z,6.6
2018-08-12T05:40:01.226Z,7.1
2018-08-12T05:45:01.065Z,7.3
2018-08-12T05:50:01.272Z,7.5
2018-08-12T06:00:01.173Z,7.6
2018-08-12T06:05:01.123Z,6.7
2018-08-12T06:10:01.213Z,6.9
2018-08-12T06:15:01.109Z,7.2
2018-08-12T06:20:01.174Z,7.8
2018-08-12T06:25:01.110Z,7.5
2018-08-12T06:30:01.174Z,8.0
2018-08-12T06:35:01.146Z,8.8
2018-08-12T06:40:01.213Z,9.0
2018-08-12T06:45:01.130Z,9.0
2018-08-12T06:50:01.195Z,9.4
2018-08-12T06:55:01.123Z,9.6
2018-08-12T07:00:01.168Z,8.8
2018-08-12T07:05:01.105Z,8.6
2018-08-12T07:10:01.171Z,8.2
2018-08-12T07:15:01.109Z,7.9
2018-08-12T07:20:01.238Z,7.6
2018-08-12T07:30:01.169Z,7.2
2018-08-12T07:35:01.133Z,7.4
2018-08-12T07:40:01.095Z,7.5
2018-08-12T07:45:01.102Z,7.6
2018-08-12T08:00:01.200Z,7.7
2018-08-12T08:05:01.143Z,7.5
2018-08-12T08:15:01.209Z,7.9
2018-08-12T08:25:01.163Z,8.0
2018-08-12T08:30:01.229Z,8.6
2018-08-12T08:35:01.070Z,8.8
2018-08-12T08:45:01.234Z,9.0
2018-08-12T08:50:01.299Z,9.3
2018-08-12T09:00:01.168Z,9.6
2018-08-12T09:05:01.107Z,9.3
2018-08-12T09:10:01.240Z,9.1
2018-08-12T09:15:01.111Z,8.6
2018-08-12T09:20:01.176Z,7.8
2018-08-12T09:25:01.063Z,7.4
2018-08-12T09:30:01.163Z,7.4
2018-08-12T09:35:01.099Z,7.9
2018-08-12T09:40:01.235Z,7.7
2018-08-12T09:45:01.096Z,7.7
2018-08-12T09:50:01.200Z,7.4
2018-08-12T10:00:01.171Z,7.6
2018-08-12T10:05:01.083Z,8.0
2018-08-12T10:10:01.109Z,7.9
2018-08-12T10:15:01.085Z,8.3
2018-08-12T10:21:01.229Z,8.8
2018-08-12T10:31:01.168Z,9.0
2018-08-12T10:36:01.105Z,9.8
2018-08-12T10:41:01.173Z,9.4
2018-08-12T10:46:01.084Z,9.0
2018-08-12T10:51:01.105Z,8.3
2018-08-12T10:56:01.107Z,8.1
2018-08-12T11:01:01.246Z,7.6
2018-08-12T11:06:01.110Z,7.8
2018-08-12T11:11:01.204Z,8.0
2018-08-12T11:16:01.149Z,7.9
2018-08-12T11:22:01.166Z,7.3
2018-08-12T11:27:01.097Z,7.2
2018-08-12T11:32:01.238Z,6.8
2018-08-12T11:37:01.103Z,6.1
2018-08-12T11:42:01.172Z,6.0
2018-08-12T11:47:01.104Z,5.8
2018-08-12T11:52:01.176Z,5.4
2018-08-12T11:57:01.236Z,5.2
2018-08-12T12:02:01.208Z,5.4
2018-08-12T12:07:01.098Z,5.6
2018-08-12T12:17:01.125Z,5.7
2018-08-12T12:22:01.164Z,5.9
2018-08-12T12:27:01.103Z,6.0
2018-08-12T12:32:01.167Z,6.5
2018-08-12T12:37:01.105Z,7.1
2018-08-12T12:42:01.236Z,8.3
2018-08-12T12:47:01.071Z,9.4
2018-08-12T12:52:01.175Z,11.2
2018-08-12T12:57:01.066Z,14.8
2018-08-12T13:02:01.164Z,18.7
2018-08-12T13:07:01.126Z,22.7
2018-08-12T13:12:01.101Z,26.7
2018-08-12T13:17:01.109Z,28.3
2018-08-12T13:22:01.200Z,28.0
2018-08-12T13:27:01.105Z,27.9
2018-08-12T13:32:01.167Z,27.0
2018-08-12T13:37:01.076Z,25.8
2018-08-12T13:42:01.179Z,25.2
2018-08-12T13:47:01.078Z,24.7
2018-08-12T13:52:01.244Z,24.4
2018-08-12T13:57:01.111Z,24.2
2018-08-12T14:02:01.231Z,23.7
2018-08-12T14:07:01.138Z,25.3
2018-08-12T14:12:01.162Z,26.0
2018-08-12T14:17:01.103Z,26.6
2018-08-12T14:22:01.174Z,27.5
2018-08-12T14:27:01.107Z,30.1
2018-08-12T14:32:01.237Z,31.1
2018-08-12T14:37:01.108Z,32.7
2018-08-12T14:42:01.169Z,34.5
2018-08-12T14:47:01.109Z,34.4
2018-08-12T14:57:01.090Z,34.1
2018-08-12T15:02:01.164Z,33.8
2018-08-12T15:07:01.111Z,32.8
2018-08-12T15:12:01.230Z,34.2
2018-08-12T15:17:01.069Z,35.0
2018-08-12T15:22:01.162Z,35.7
2018-08-12T15:27:01.102Z,35.8
2018-08-12T15:32:01.168Z,37.5
2018-08-12T15:37:01.102Z,37.8
2018-08-12T15:42:01.237Z,37.9
2018-08-12T15:47:01.107Z,38.2
2018-08-12T15:57:01.208Z,37.6
2018-08-12T16:02:01.174Z,36.1
2018-08-12T16:07:01.082Z,35.2
2018-08-12T16:12:01.173Z,34.4
2018-08-12T16:17:01.126Z,35.0
2018-08-12T16:22:01.200Z,34.2
2018-08-12T16:32:06.243Z,33.8
2018-08-12T16:37:01.069Z,33.6
2018-08-12T16:47:01.170Z,33.9
2018-08-12T16:52:01.234Z,35.2
2018-08-12T17:02:01.174Z,36.2
2018-08-12T17:07:01.080Z,35.6
2018-08-12T17:12:01.169Z,36.1
2018-08-12T17:17:01.098Z,35.6
2018-08-12T17:22:01.245Z,35.9
2018-08-12T17:27:01.068Z,35.0
2018-08-12T17:37:01.255Z,34.6
2018-08-12T17:42:01.169Z,34.8
2018-08-12T17:47:01.076Z,35.0
2018-08-12T17:52:01.197Z,35.4
2018-08-12T17:57:01.086Z,35.5
2018-08-12T18:02:01.109Z,35.3
2018-08-12T18:07:01.107Z,33.4
2018-08-12T18:12:01.228Z,32.6
2018-08-12T18:17:06.106Z,31.2
2018-08-12T18:27:01.403Z,31.6
2018-08-12T18:32:01.170Z,33.0
2018-08-12T18:37:01.070Z,32.6
2018-08-12T18:42:01.238Z,34.0
2018-08-12T18:47:06.128Z,33.3
2018-08-12T18:52:06.183Z,32.0
2018-08-12T18:57:06.113Z,30.6
2018-08-12T19:02:01.178Z,30.3
2018-08-12T19:07:01.079Z,28.2
2018-08-12T19:12:01.163Z,28.0
2018-08-12T19:17:01.073Z,26.8
2018-08-12T19:22:01.228Z,26.2
2018-08-12T19:27:01.096Z,25.2
2018-08-12T19:32:01.162Z,25.4
2018-08-12T19:37:01.082Z,25.0
2018-08-12T19:42:01.174Z,25.3
2018-08-12T19:47:01.073Z,25.1
2018-08-12T19:52:01.108Z,25.0
2018-08-12T19:57:01.074Z,24.0
2018-08-12T20:02:01.236Z,23.4
2018-08-12T20:07:01.112Z,23.0
2018-08-12T20:12:01.217Z,22.9
2018-08-12T20:22:01.161Z,23.0
2018-08-12T20:27:01.096Z,23.3
2018-08-12T20:32:01.225Z,24.1
2018-08-12T20:37:01.063Z,25.2
2018-08-12T20:42:01.098Z,26.3
2018-08-12T20:47:01.095Z,26.8
2018-08-12T20:52:01.206Z,28.2
2018-08-12T20:57:01.104Z,27.8
2018-08-12T21:02:01.228Z,26.1
2018-08-12T21:07:01.106Z,25.4
2018-08-12T21:12:01.293Z,25.7
2018-08-12T21:17:01.077Z,25.0
2018-08-12T21:22:01.174Z,25.5
2018-08-12T21:27:01.075Z,27.3
2018-08-12T21:32:01.172Z,27.4
2018-08-12T21:37:01.116Z,28.4
2018-08-12T21:42:01.144Z,28.1
2018-08-12T21:47:01.143Z,28.6
2018-08-12T21:52:01.210Z,29.0
2018-08-12T21:57:01.126Z,29.2
2018-08-12T22:02:01.162Z,28.9
2018-08-12T22:07:01.069Z,29.5
2018-08-12T22:12:01.096Z,30.0
2018-08-12T22:17:01.118Z,29.5
2018-08-12T22:22:01.103Z,30.7
2018-08-12T22:27:01.074Z,30.6
2018-08-12T22:32:01.111Z,30.2
2018-08-12T22:37:01.090Z,30.0
2018-08-12T22:42:01.117Z,30.4
2018-08-12T22:47:01.063Z,30.8
2018-08-12T22:52:01.094Z,31.7
2018-08-12T22:57:01.091Z,31.6
2018-08-12T23:02:01.097Z,31.1
2018-08-12T23:07:01.102Z,31.8
2018-08-12T23:12:01.109Z,30.8
2018-08-12T23:17:01.142Z,30.1
2018-08-12T23:22:01.141Z,30.4
2018-08-12T23:27:01.140Z,30.7
2018-08-12T23:32:01.150Z,30.8
2018-08-12T23:37:01.145Z,32.6
2018-08-12T23:42:01.132Z,32.4
2018-08-12T23:52:01.098Z,32.6
2018-08-12T23:57:01.069Z,31.9
